WXM80 ListenWXM80 Stop

You find our weather info also at:

UK Metoffice

WeatherCloud

Weather Underground

Northeastern Weather Network

AWEKAS

Citizen Weather Observer Program (CWOP)

HAMweather, WeatherForYou, PWS Weather


Weather Underground History page Text

Daily Summary for August 8, 2017 Units:  Both    English   Metric
« Previous Day
Next Day »
Daily Weekly Monthly Yearly Custom
  High: Low: Average:
Temperature: 80.7 °F /  27.1 °C 65.6 °F /  18.7 °C 70.4 °F /  21.3 °C
Dew Point: 68.1 °F /  20.1 °C 61.2 °F /  16.2 °C 64.9 °F /  18.3 °C
Humidity: 97 % 60 % 84 %
Wind Speed: 8.1 mph /  13 km/h - 1.7 mph /  2.7 km/h
Wind Gust: 12.7 mph /  20.4 km/h - -
Wind:- - SSE
Pressure: 30.04 in /  1017.2 hPa 29.82 in /  1009.7 hPa -
Precipitation: 0.01 in /  0.25 mm    
Historical Graphs
 
 
Tabular Data for August 8, 2017
Time Temperature Dew Point Pressure Wind Wind Speed Wind Gust Humidity Rainfall Rate (Hourly)
00:08 65.8 °F /  18.8 °C 64.9 °F /  18.3 °C 29.85 in /  1010.7 hPa Calm     97 % 0.00 in /  0 mm
00:13 65.9 °F /  18.8 °C 65.0 °F /  18.3 °C 29.85 in /  1010.7 hPa Calm   1.2 mph /  1.9 km/h 97 % 0.00 in /  0 mm
00:18 65.9 °F /  18.8 °C 65.0 °F /  18.3 °C 29.85 in /  1010.7 hPa ENE 0.1 mph /  0.2 km/h 3.5 mph /  5.6 km/h 97 % 0.00 in /  0 mm
00:23 65.9 °F /  18.8 °C 65.0 °F /  18.3 °C 29.85 in /  1010.7 hPa ENE 0.3 mph /  0.5 km/h 2.3 mph /  3.7 km/h 97 % 0.00 in /  0 mm
00:28 65.9 °F /  18.8 °C 65.0 °F /  18.3 °C 29.85 in /  1010.7 hPa Calm     97 % 0.00 in /  0 mm
00:33 66.0 °F /  18.9 °C 65.1 °F /  18.4 °C 29.85 in /  1010.7 hPa ENE 0.1 mph /  0.2 km/h 1.2 mph /  1.9 km/h 97 % 0.00 in /  0 mm
00:38 66.0 °F /  18.9 °C 65.1 °F /  18.4 °C 29.85 in /  1010.7 hPa ENE 0.1 mph /  0.2 km/h 2.3 mph /  3.7 km/h 97 % 0.00 in /  0 mm
00:43 66.1 °F /  18.9 °C 65.2 °F /  18.4 °C 29.85 in /  1010.7 hPa NE 1.2 mph /  1.9 km/h 3.5 mph /  5.6 km/h 97 % 0.00 in /  0 mm
00:48 66.1 °F /  18.9 °C 65.2 °F /  18.4 °C 29.85 in /  1010.7 hPa NE 1.1 mph /  1.8 km/h 2.3 mph /  3.7 km/h 97 % 0.00 in /  0 mm
00:53 66.1 °F /  18.9 °C 65.2 °F /  18.4 °C 29.84 in /  1010.4 hPa ENE 1.5 mph /  2.4 km/h 4.0 mph /  6.4 km/h 97 % 0.00 in /  0 mm
00:59 66.2 °F /  19 °C 65.3 °F /  18.5 °C 29.84 in /  1010.4 hPa NE 0.6 mph /  1 km/h 4.6 mph /  7.4 km/h 97 % 0.00 in /  0 mm
01:04 66.2 °F /  19 °C 65.3 °F /  18.5 °C 29.84 in /  1010.4 hPa NE 0.9 mph /  1.4 km/h 2.3 mph /  3.7 km/h 97 % 0.00 in /  0 mm
01:09 66.3 °F /  19.1 °C 65.4 °F /  18.6 °C 29.83 in /  1010 hPa NE 1.2 mph /  1.9 km/h 3.5 mph /  5.6 km/h 97 % 0.00 in /  0 mm
01:14 66.3 °F /  19.1 °C 65.4 °F /  18.6 °C 29.83 in /  1010 hPa NE 1.9 mph /  3.1 km/h 4.0 mph /  6.4 km/h 97 % 0.00 in /  0 mm
01:19 66.3 °F /  19.1 °C 65.4 °F /  18.6 °C 29.83 in /  1010 hPa ENE 1.9 mph /  3.1 km/h 4.0 mph /  6.4 km/h 97 % 0.00 in /  0 mm
01:24 66.3 °F /  19.1 °C 65.4 °F /  18.6 °C 29.83 in /  1010 hPa ENE 1.9 mph /  3.1 km/h 4.6 mph /  7.4 km/h 97 % 0.00 in /  0 mm
01:29 66.3 °F /  19.1 °C 65.4 °F /  18.6 °C 29.83 in /  1010 hPa ENE 2.1 mph /  3.4 km/h 3.5 mph /  5.6 km/h 97 % 0.00 in /  0 mm
01:34 66.3 °F /  19.1 °C 65.4 °F /  18.6 °C 29.83 in /  1010 hPa North 0.3 mph /  0.5 km/h 3.5 mph /  5.6 km/h 97 % 0.00 in /  0 mm
01:39 66.4 °F /  19.1 °C 65.5 °F /  18.6 °C 29.83 in /  1010 hPa NNE 2.3 mph /  3.7 km/h 5.8 mph /  9.3 km/h 97 % 0.00 in /  0 mm
01:44 66.4 °F /  19.1 °C 65.5 °F /  18.6 °C 29.83 in /  1010 hPa NE 2.6 mph /  4.2 km/h 5.8 mph /  9.3 km/h 97 % 0.00 in /  0 mm
01:49 66.4 °F /  19.1 °C 65.5 °F /  18.6 °C 29.83 in /  1010 hPa North 2.3 mph /  3.7 km/h 7.0 mph /  11.3 km/h 97 % 0.00 in /  0 mm
01:54 66.4 °F /  19.1 °C 65.5 °F /  18.6 °C 29.83 in /  1010 hPa North 4.1 mph /  6.6 km/h 8.1 mph /  13 km/h 97 % 0.00 in /  0 mm
01:59 66.4 °F /  19.1 °C 65.5 °F /  18.6 °C 29.82 in /  1009.7 hPa NNE 5.2 mph /  8.4 km/h 8.0 mph /  12.9 km/h 97 % 0.00 in /  0 mm
02:04 66.3 °F /  19.1 °C 65.4 °F /  18.6 °C 29.83 in /  1010 hPa NNE 5.9 mph /  9.5 km/h 9.2 mph /  14.8 km/h 97 % 0.00 in /  0 mm
02:09 66.3 °F /  19.1 °C 65.4 °F /  18.6 °C 29.82 in /  1009.7 hPa NNE 4.2 mph /  6.8 km/h 9.0 mph /  14.5 km/h 97 % 0.00 in /  0 mm
02:14 66.3 °F /  19.1 °C 65.4 °F /  18.6 °C 29.83 in /  1010 hPa North 3.3 mph /  5.3 km/h 5.8 mph /  9.3 km/h 97 % 0.00 in /  0 mm
02:19 66.2 °F /  19 °C 65.3 °F /  18.5 °C 29.83 in /  1010 hPa NNE 5.0 mph /  8 km/h 6.9 mph /  11.1 km/h 97 % 0.00 in /  0 mm
02:22 66.1 °F /  18.9 °C 65.2 °F /  18.4 °C 29.82 in /  1009.7 hPa NNE 4.9 mph /  7.9 km/h 9.2 mph /  14.8 km/h 97 % 0.00 in /  0 mm
02:27 66.1 °F /  18.9 °C 65.2 °F /  18.4 °C 29.83 in /  1010 hPa NE 1.4 mph /  2.3 km/h 3.5 mph /  5.6 km/h 97 % 0.00 in /  0 mm
02:32 66.0 °F /  18.9 °C 65.1 °F /  18.4 °C 29.83 in /  1010 hPa NE 1.8 mph /  2.9 km/h 5.0 mph /  8 km/h 97 % 0.00 in /  0 mm
02:37 66.0 °F /  18.9 °C 65.1 °F /  18.4 °C 29.83 in /  1010 hPa NNE 4.3 mph /  6.9 km/h 8.1 mph /  13 km/h 97 % 0.00 in /  0 mm
02:42 66.0 °F /  18.9 °C 65.1 °F /  18.4 °C 29.82 in /  1009.7 hPa NNE 3.0 mph /  4.8 km/h 4.6 mph /  7.4 km/h 97 % 0.00 in /  0 mm
02:47 66.0 °F /  18.9 °C 65.1 °F /  18.4 °C 29.82 in /  1009.7 hPa NNE 0.6 mph /  1 km/h 2.3 mph /  3.7 km/h 97 % 0.00 in /  0 mm
02:52 66.0 °F /  18.9 °C 65.1 °F /  18.4 °C 29.82 in /  1009.7 hPa ENE 4.8 mph /  7.7 km/h 7.0 mph /  11.3 km/h 97 % 0.00 in /  0 mm
02:57 66.0 °F /  18.9 °C 65.1 °F /  18.4 °C 29.82 in /  1009.7 hPa NNE 1.9 mph /  3.1 km/h 4.0 mph /  6.4 km/h 97 % 0.00 in /  0 mm
03:02 65.9 °F /  18.8 °C 65.0 °F /  18.3 °C 29.83 in /  1010 hPa ENE 2.3 mph /  3.7 km/h 3.5 mph /  5.6 km/h 97 % 0.00 in /  0 mm
03:07 65.9 °F /  18.8 °C 65.0 °F /  18.3 °C 29.83 in /  1010 hPa NE 2.4 mph /  3.9 km/h 4.0 mph /  6.4 km/h 97 % 0.00 in /  0 mm
03:12 65.9 °F /  18.8 °C 65.0 °F /  18.3 °C 29.83 in /  1010 hPa ENE 2.6 mph /  4.2 km/h 3.5 mph /  5.6 km/h 97 % 0.00 in /  0 mm
03:17 66.0 °F /  18.9 °C 65.1 °F /  18.4 °C 29.83 in /  1010 hPa NE 1.4 mph /  2.3 km/h 3.5 mph /  5.6 km/h 97 % 0.00 in /  0 mm
03:22 65.9 °F /  18.8 °C 65.0 °F /  18.3 °C 29.82 in /  1009.7 hPa NNE 3.9 mph /  6.3 km/h 6.9 mph /  11.1 km/h 97 % 0.00 in /  0 mm
03:27 65.9 °F /  18.8 °C 65.0 °F /  18.3 °C 29.83 in /  1010 hPa NE 0.1 mph /  0.2 km/h 3.5 mph /  5.6 km/h 97 % 0.00 in /  0 mm
03:32 65.9 °F /  18.8 °C 65.0 °F /  18.3 °C 29.83 in /  1010 hPa North 1.9 mph /  3.1 km/h 3.5 mph /  5.6 km/h 97 % 0.00 in /  0 mm
03:37 65.9 °F /  18.8 °C 65.0 °F /  18.3 °C 29.82 in /  1009.7 hPa NNE 1.6 mph /  2.6 km/h 2.3 mph /  3.7 km/h 97 % 0.00 in /  0 mm
03:42 65.9 °F /  18.8 °C 65.0 °F /  18.3 °C 29.83 in /  1010 hPa NNE 2.7 mph /  4.3 km/h 4.6 mph /  7.4 km/h 97 % 0.00 in /  0 mm
03:47 65.9 °F /  18.8 °C 65.0 °F /  18.3 °C 29.83 in /  1010 hPa NNE 1.0 mph /  1.6 km/h 4.6 mph /  7.4 km/h 97 % 0.00 in /  0 mm
03:52 65.8 °F /  18.8 °C 64.9 °F /  18.3 °C 29.83 in /  1010 hPa NNE 1.4 mph /  2.3 km/h 3.5 mph /  5.6 km/h 97 % 0.00 in /  0 mm
03:57 65.8 °F /  18.8 °C 64.9 °F /  18.3 °C 29.83 in /  1010 hPa ENE 0.8 mph /  1.3 km/h 3.5 mph /  5.6 km/h 97 % 0.00 in /  0 mm
04:02 65.8 °F /  18.8 °C 64.9 °F /  18.3 °C 29.82 in /  1009.7 hPa NNE 1.0 mph /  1.6 km/h 3.5 mph /  5.6 km/h 97 % 0.00 in /  0 mm
04:07 65.8 °F /  18.8 °C 64.9 °F /  18.3 °C 29.82 in /  1009.7 hPa NE 1.5 mph /  2.4 km/h 4.6 mph /  7.4 km/h 97 % 0.00 in /  0 mm
04:12 65.8 °F /  18.8 °C 64.9 °F /  18.3 °C 29.82 in /  1009.7 hPa NNW 2.2 mph /  3.5 km/h 4.0 mph /  6.4 km/h 97 % 0.00 in /  0 mm
04:17 65.8 °F /  18.8 °C 64.9 °F /  18.3 °C 29.82 in /  1009.7 hPa NNE 0.2 mph /  0.3 km/h 1.2 mph /  1.9 km/h 97 % 0.00 in /  0 mm
04:22 65.8 °F /  18.8 °C 64.9 °F /  18.3 °C 29.82 in /  1009.7 hPa ENE 1.3 mph /  2.1 km/h 3.5 mph /  5.6 km/h 97 % 0.00 in /  0 mm
04:27 65.7 °F /  18.7 °C 64.8 °F /  18.2 °C 29.82 in /  1009.7 hPa ENE 1.5 mph /  2.4 km/h 4.0 mph /  6.4 km/h 97 % 0.00 in /  0 mm
04:32 65.8 °F /  18.8 °C 64.9 °F /  18.3 °C 29.82 in /  1009.7 hPa NNE 0.4 mph /  0.6 km/h 2.3 mph /  3.7 km/h 97 % 0.00 in /  0 mm
04:37 65.8 °F /  18.8 °C 64.9 °F /  18.3 °C 29.82 in /  1009.7 hPa Calm   1.2 mph /  1.9 km/h 97 % 0.00 in /  0 mm
04:42 65.7 °F /  18.7 °C 64.8 °F /  18.2 °C 29.82 in /  1009.7 hPa NE 0.8 mph /  1.3 km/h 3.0 mph /  4.8 km/h 97 % 0.00 in /  0 mm
04:47 65.7 °F /  18.7 °C 64.8 °F /  18.2 °C 29.82 in /  1009.7 hPa NE 0.8 mph /  1.3 km/h 3.5 mph /  5.6 km/h 97 % 0.00 in /  0 mm
04:52 65.7 °F /  18.7 °C 64.8 °F /  18.2 °C 29.82 in /  1009.7 hPa North 1.0 mph /  1.6 km/h 4.6 mph /  7.4 km/h 97 % 0.00 in /  0 mm
04:57 65.7 °F /  18.7 °C 64.8 °F /  18.2 °C 29.83 in /  1010 hPa NNE 0.8 mph /  1.3 km/h 3.5 mph /  5.6 km/h 97 % 0.00 in /  0 mm
05:03 65.7 °F /  18.7 °C 64.8 °F /  18.2 °C 29.83 in /  1010 hPa NNE 0.9 mph /  1.4 km/h 2.3 mph /  3.7 km/h 97 % 0.00 in /  0 mm
05:08 65.7 °F /  18.7 °C 64.8 °F /  18.2 °C 29.83 in /  1010 hPa NNE 3.5 mph /  5.6 km/h 5.8 mph /  9.3 km/h 97 % 0.00 in /  0 mm
05:13 65.7 °F /  18.7 °C 64.8 °F /  18.2 °C 29.82 in /  1009.7 hPa NNE 1.2 mph /  1.9 km/h 3.5 mph /  5.6 km/h 97 % 0.00 in /  0 mm
05:18 65.7 °F /  18.7 °C 64.8 °F /  18.2 °C 29.82 in /  1009.7 hPa North 1.5 mph /  2.4 km/h 5.8 mph /  9.3 km/h 97 % 0.00 in /  0 mm
05:23 65.6 °F /  18.7 °C 64.7 °F /  18.2 °C 29.82 in /  1009.7 hPa NNE 1.6 mph /  2.6 km/h 3.5 mph /  5.6 km/h 97 % 0.00 in /  0 mm
05:28 65.7 °F /  18.7 °C 64.8 °F /  18.2 °C 29.82 in /  1009.7 hPa NNE 3.4 mph /  5.5 km/h 5.8 mph /  9.3 km/h 97 % 0.00 in /  0 mm
05:33 65.7 °F /  18.7 °C 64.8 °F /  18.2 °C 29.82 in /  1009.7 hPa North 1.9 mph /  3.1 km/h 4.6 mph /  7.4 km/h 97 % 0.00 in /  0 mm
05:38 65.7 °F /  18.7 °C 64.8 °F /  18.2 °C 29.83 in /  1010 hPa NNE 2.9 mph /  4.7 km/h 4.6 mph /  7.4 km/h 97 % 0.00 in /  0 mm
05:43 65.7 °F /  18.7 °C 64.8 °F /  18.2 °C 29.83 in /  1010 hPa NNE 3.0 mph /  4.8 km/h 6.0 mph /  9.7 km/h 97 % 0.00 in /  0 mm
05:48 65.7 °F /  18.7 °C 64.8 °F /  18.2 °C 29.83 in /  1010 hPa NNW 2.1 mph /  3.4 km/h 4.6 mph /  7.4 km/h 97 % 0.00 in /  0 mm
05:53 65.7 °F /  18.7 °C 64.8 °F /  18.2 °C 29.83 in /  1010 hPa NNE 2.8 mph /  4.5 km/h 4.0 mph /  6.4 km/h 97 % 0.00 in /  0 mm
05:58 65.6 °F /  18.7 °C 64.7 °F /  18.2 °C 29.82 in /  1009.7 hPa NNE 2.5 mph /  4 km/h 3.5 mph /  5.6 km/h 97 % 0.00 in /  0 mm
06:03 65.6 °F /  18.7 °C 64.7 °F /  18.2 °C 29.82 in /  1009.7 hPa NNE 1.7 mph /  2.7 km/h 3.5 mph /  5.6 km/h 97 % 0.00 in /  0 mm
06:08 65.6 °F /  18.7 °C 64.7 °F /  18.2 °C 29.83 in /  1010 hPa NNE 1.3 mph /  2.1 km/h 3.5 mph /  5.6 km/h 97 % 0.00 in /  0 mm
06:13 65.6 °F /  18.7 °C 64.7 °F /  18.2 °C 29.83 in /  1010 hPa NNE 3.1 mph /  5 km/h 4.6 mph /  7.4 km/h 97 % 0.00 in /  0 mm
06:18 65.6 °F /  18.7 °C 64.7 °F /  18.2 °C 29.83 in /  1010 hPa NNE 2.0 mph /  3.2 km/h 3.5 mph /  5.6 km/h 97 % 0.00 in /  0 mm
06:23 65.6 °F /  18.7 °C 64.7 °F /  18.2 °C 29.83 in /  1010 hPa NNE 0.4 mph /  0.6 km/h 2.3 mph /  3.7 km/h 97 % 0.00 in /  0 mm
06:28 65.6 °F /  18.7 °C 64.7 °F /  18.2 °C 29.83 in /  1010 hPa Calm   1.2 mph /  1.9 km/h 97 % 0.00 in /  0 mm
06:33 65.6 °F /  18.7 °C 64.7 °F /  18.2 °C 29.84 in /  1010.4 hPa NNE 2.3 mph /  3.7 km/h 5.0 mph /  8 km/h 97 % 0.00 in /  0 mm
06:38 65.6 °F /  18.7 °C 64.7 °F /  18.2 °C 29.84 in /  1010.4 hPa North 2.7 mph /  4.3 km/h 3.5 mph /  5.6 km/h 97 % 0.00 in /  0 mm
06:43 65.6 °F /  18.7 °C 64.7 °F /  18.2 °C 29.84 in /  1010.4 hPa North 0.4 mph /  0.6 km/h 3.5 mph /  5.6 km/h 97 % 0.00 in /  0 mm
06:49 65.6 °F /  18.7 °C 64.7 °F /  18.2 °C 29.84 in /  1010.4 hPa NNE 2.3 mph /  3.7 km/h 3.0 mph /  4.8 km/h 97 % 0.00 in /  0 mm
06:54 65.6 °F /  18.7 °C 64.7 °F /  18.2 °C 29.83 in /  1010 hPa NNE 1.0 mph /  1.6 km/h 3.5 mph /  5.6 km/h 97 % 0.00 in /  0 mm
06:59 65.7 °F /  18.7 °C 64.8 °F /  18.2 °C 29.83 in /  1010 hPa NNE 1.6 mph /  2.6 km/h 3.5 mph /  5.6 km/h 97 % 0.00 in /  0 mm
07:04 65.7 °F /  18.7 °C 64.8 °F /  18.2 °C 29.83 in /  1010 hPa NNE 3.0 mph /  4.8 km/h 3.5 mph /  5.6 km/h 97 % 0.00 in /  0 mm
07:09 65.7 °F /  18.7 °C 64.8 °F /  18.2 °C 29.84 in /  1010.4 hPa North 0.7 mph /  1.1 km/h 3.0 mph /  4.8 km/h 97 % 0.00 in /  0 mm
07:14 65.7 °F /  18.7 °C 64.8 °F /  18.2 °C 29.84 in /  1010.4 hPa NNW 1.8 mph /  2.9 km/h 4.6 mph /  7.4 km/h 97 % 0.00 in /  0 mm
07:19 65.7 °F /  18.7 °C 64.8 °F /  18.2 °C 29.84 in /  1010.4 hPa NNE 2.4 mph /  3.9 km/h 3.5 mph /  5.6 km/h 97 % 0.00 in /  0 mm
07:24 65.8 °F /  18.8 °C 64.9 °F /  18.3 °C 29.84 in /  1010.4 hPa North 1.7 mph /  2.7 km/h 3.0 mph /  4.8 km/h 97 % 0.00 in /  0 mm
07:29 65.8 °F /  18.8 °C 64.9 °F /  18.3 °C 29.85 in /  1010.7 hPa NNW 2.4 mph /  3.9 km/h 3.5 mph /  5.6 km/h 97 % 0.00 in /  0 mm
07:34 65.8 °F /  18.8 °C 64.9 °F /  18.3 °C 29.85 in /  1010.7 hPa North 1.3 mph /  2.1 km/h 2.3 mph /  3.7 km/h 97 % 0.00 in /  0 mm
07:36 65.8 °F /  18.8 °C 64.9 °F /  18.3 °C 29.85 in /  1010.7 hPa Calm   3.5 mph /  5.6 km/h 97 % 0.00 in /  0 mm
07:41 65.8 °F /  18.8 °C 64.9 °F /  18.3 °C 29.85 in /  1010.7 hPa NNE 2.0 mph /  3.2 km/h 3.5 mph /  5.6 km/h 97 % 0.00 in /  0 mm
07:46 65.9 °F /  18.8 °C 65.0 °F /  18.3 °C 29.85 in /  1010.7 hPa NNE 2.6 mph /  4.2 km/h 3.5 mph /  5.6 km/h 97 % 0.00 in /  0 mm
07:51 65.9 °F /  18.8 °C 65.0 °F /  18.3 °C 29.85 in /  1010.7 hPa NNE 2.9 mph /  4.7 km/h 3.5 mph /  5.6 km/h 97 % 0.00 in /  0 mm
07:56 65.9 °F /  18.8 °C 65.0 °F /  18.3 °C 29.85 in /  1010.7 hPa NNW 1.2 mph /  1.9 km/h 3.5 mph /  5.6 km/h 97 % 0.00 in /  0 mm
08:01 65.9 °F /  18.8 °C 65.0 °F /  18.3 °C 29.86 in /  1011.1 hPa NNE 1.7 mph /  2.7 km/h 5.0 mph /  8 km/h 97 % 0.00 in /  0 mm
08:06 66.0 °F /  18.9 °C 65.1 °F /  18.4 °C 29.86 in /  1011.1 hPa North 2.2 mph /  3.5 km/h 3.5 mph /  5.6 km/h 97 % 0.00 in /  0 mm
08:11 65.9 °F /  18.8 °C 65.0 °F /  18.3 °C 29.86 in /  1011.1 hPa NNW 2.4 mph /  3.9 km/h 4.6 mph /  7.4 km/h 97 % 0.00 in /  0 mm
08:16 66.0 °F /  18.9 °C 64.8 °F /  18.2 °C 29.86 in /  1011.1 hPa NNE 4.3 mph /  6.9 km/h 4.6 mph /  7.4 km/h 96 % 0.00 in /  0 mm
08:21 66.1 °F /  18.9 °C 64.9 °F /  18.3 °C 29.86 in /  1011.1 hPa North 0.4 mph /  0.6 km/h 2.3 mph /  3.7 km/h 96 % 0.00 in /  0 mm
08:26 66.1 °F /  18.9 °C 64.9 °F /  18.3 °C 29.86 in /  1011.1 hPa North 3.1 mph /  5 km/h 4.0 mph /  6.4 km/h 96 % 0.00 in /  0 mm
08:31 66.2 °F /  19 °C 65.0 °F /  18.3 °C 29.86 in /  1011.1 hPa NNE 2.2 mph /  3.5 km/h 3.5 mph /  5.6 km/h 96 % 0.00 in /  0 mm
08:36 66.2 °F /  19 °C 65.0 °F /  18.3 °C 29.86 in /  1011.1 hPa NNW 3.9 mph /  6.3 km/h 5.8 mph /  9.3 km/h 96 % 0.00 in /  0 mm
08:41 66.3 °F /  19.1 °C 65.1 °F /  18.4 °C 29.86 in /  1011.1 hPa NNE 1.3 mph /  2.1 km/h 4.0 mph /  6.4 km/h 96 % 0.00 in /  0 mm
08:46 66.5 °F /  19.2 °C 65.3 °F /  18.5 °C 29.86 in /  1011.1 hPa NNE 1.1 mph /  1.8 km/h 3.5 mph /  5.6 km/h 96 % 0.00 in /  0 mm
08:51 66.5 °F /  19.2 °C 65.3 °F /  18.5 °C 29.86 in /  1011.1 hPa NW 1.1 mph /  1.8 km/h 3.5 mph /  5.6 km/h 96 % 0.00 in /  0 mm
08:56 66.6 °F /  19.2 °C 65.4 °F /  18.6 °C 29.86 in /  1011.1 hPa NNW 0.7 mph /  1.1 km/h 3.5 mph /  5.6 km/h 96 % 0.00 in /  0 mm
09:01 66.7 °F /  19.3 °C 65.5 °F /  18.6 °C 29.86 in /  1011.1 hPa NNW 3.4 mph /  5.5 km/h 6.0 mph /  9.7 km/h 96 % 0.00 in /  0 mm
09:07 66.7 °F /  19.3 °C 65.5 °F /  18.6 °C 29.87 in /  1011.4 hPa NNE 1.5 mph /  2.4 km/h 3.5 mph /  5.6 km/h 96 % 0.00 in /  0 mm
09:12 66.7 °F /  19.3 °C 65.5 °F /  18.6 °C 29.87 in /  1011.4 hPa NNE 1.1 mph /  1.8 km/h 2.0 mph /  3.2 km/h 96 % 0.00 in /  0 mm
09:17 66.7 °F /  19.3 °C 65.5 °F /  18.6 °C 29.87 in /  1011.4 hPa NNE 2.6 mph /  4.2 km/h 5.8 mph /  9.3 km/h 96 % 0.00 in /  0 mm
09:22 66.7 °F /  19.3 °C 65.2 °F /  18.4 °C 29.87 in /  1011.4 hPa North 3.7 mph /  6 km/h 6.0 mph /  9.7 km/h 95 % 0.01 in /  0.25 mm
09:27 66.7 °F /  19.3 °C 65.2 °F /  18.4 °C 29.87 in /  1011.4 hPa NNE 1.1 mph /  1.8 km/h 4.0 mph /  6.4 km/h 95 % 0.01 in /  0.25 mm
09:32 66.7 °F /  19.3 °C 65.2 °F /  18.4 °C 29.87 in /  1011.4 hPa NNE 3.7 mph /  6 km/h 5.8 mph /  9.3 km/h 95 % 0.01 in /  0.25 mm
09:37 66.7 °F /  19.3 °C 65.2 °F /  18.4 °C 29.88 in /  1011.7 hPa North 4.3 mph /  6.9 km/h 6.9 mph /  11.1 km/h 95 % 0.01 in /  0.25 mm
09:42 66.8 °F /  19.3 °C 65.3 °F /  18.5 °C 29.88 in /  1011.7 hPa NNE 1.5 mph /  2.4 km/h 4.6 mph /  7.4 km/h 95 % 0.01 in /  0.25 mm
09:47 66.9 °F /  19.4 °C 65.4 °F /  18.6 °C 29.88 in /  1011.7 hPa North 3.7 mph /  6 km/h 4.6 mph /  7.4 km/h 95 % 0.01 in /  0.25 mm
09:52 66.9 °F /  19.4 °C 65.1 °F /  18.4 °C 29.88 in /  1011.7 hPa NNW 1.6 mph /  2.6 km/h 4.6 mph /  7.4 km/h 94 % 0.01 in /  0.25 mm
09:57 67.0 °F /  19.4 °C 65.2 °F /  18.4 °C 29.88 in /  1011.7 hPa NNW 1.4 mph /  2.3 km/h 4.6 mph /  7.4 km/h 94 % 0.01 in /  0.25 mm
10:02 67.1 °F /  19.5 °C 65.3 °F /  18.5 °C 29.88 in /  1011.7 hPa NW 2.8 mph /  4.5 km/h 5.8 mph /  9.3 km/h 94 % 0.01 in /  0.25 mm
10:07 67.3 °F /  19.6 °C 65.2 °F /  18.4 °C 29.88 in /  1011.7 hPa North 1.6 mph /  2.6 km/h 5.8 mph /  9.3 km/h 93 % 0.01 in /  0.25 mm
10:12 67.4 °F /  19.7 °C 65.3 °F /  18.5 °C 29.88 in /  1011.7 hPa NE 5.1 mph /  8.2 km/h 6.9 mph /  11.1 km/h 93 % 0.01 in /  0.25 mm
10:17 67.5 °F /  19.7 °C 65.1 °F /  18.4 °C 29.89 in /  1012.1 hPa NNW 2.5 mph /  4 km/h 6.9 mph /  11.1 km/h 92 % 0.01 in /  0.25 mm
10:22 67.6 °F /  19.8 °C 64.9 °F /  18.3 °C 29.88 in /  1011.7 hPa NNW 0.6 mph /  1 km/h 2.3 mph /  3.7 km/h 91 % 0.00 in /  0 mm
10:27 67.7 °F /  19.8 °C 65.0 °F /  18.3 °C 29.88 in /  1011.7 hPa NNE 3.9 mph /  6.3 km/h 6.9 mph /  11.1 km/h 91 % 0.00 in /  0 mm
10:32 67.9 °F /  19.9 °C 65.2 °F /  18.4 °C 29.89 in /  1012.1 hPa North 4.1 mph /  6.6 km/h 5.8 mph /  9.3 km/h 91 % 0.00 in /  0 mm
10:37 68.0 °F /  20 °C 65.3 °F /  18.5 °C 29.88 in /  1011.7 hPa NW 1.9 mph /  3.1 km/h 4.6 mph /  7.4 km/h 91 % 0.00 in /  0 mm
10:42 68.1 °F /  20.1 °C 64.7 °F /  18.2 °C 29.89 in /  1012.1 hPa North 2.4 mph /  3.9 km/h 4.6 mph /  7.4 km/h 89 % 0.00 in /  0 mm
10:47 68.1 °F /  20.1 °C 64.7 °F /  18.2 °C 29.89 in /  1012.1 hPa NNW 4.1 mph /  6.6 km/h 8.1 mph /  13 km/h 89 % 0.00 in /  0 mm
10:52 68.1 °F /  20.1 °C 64.7 °F /  18.2 °C 29.89 in /  1012.1 hPa NNE 5.6 mph /  9 km/h 9.0 mph /  14.5 km/h 89 % 0.00 in /  0 mm
10:57 68.2 °F /  20.1 °C 64.8 °F /  18.2 °C 29.89 in /  1012.1 hPa NNE 4.5 mph /  7.2 km/h 8.1 mph /  13 km/h 89 % 0.00 in /  0 mm
11:02 68.2 °F /  20.1 °C 64.5 °F /  18.1 °C 29.89 in /  1012.1 hPa NW 7.5 mph /  12.1 km/h 11.5 mph /  18.5 km/h 88 % 0.00 in /  0 mm
11:07 68.2 °F /  20.1 °C 64.5 °F /  18.1 °C 29.89 in /  1012.1 hPa North 8.1 mph /  13 km/h 12.7 mph /  20.4 km/h 88 % 0.00 in /  0 mm
11:12 68.2 °F /  20.1 °C 64.5 °F /  18.1 °C 29.89 in /  1012.1 hPa North 2.0 mph /  3.2 km/h 4.6 mph /  7.4 km/h 88 % 0.00 in /  0 mm
11:17 68.4 °F /  20.2 °C 64.4 °F /  18 °C 29.89 in /  1012.1 hPa North 5.5 mph /  8.9 km/h 8.1 mph /  13 km/h 87 % 0.00 in /  0 mm
11:22 68.6 °F /  20.3 °C 64.6 °F /  18.1 °C 29.89 in /  1012.1 hPa NNE 5.7 mph /  9.2 km/h 10.4 mph /  16.7 km/h 87 % 0.00 in /  0 mm
11:27 68.8 °F /  20.4 °C 64.4 °F /  18 °C 29.89 in /  1012.1 hPa North 5.7 mph /  9.2 km/h 8.1 mph /  13 km/h 86 % 0.00 in /  0 mm
11:32 68.9 °F /  20.5 °C 64.5 °F /  18.1 °C 29.89 in /  1012.1 hPa NNE 4.9 mph /  7.9 km/h 8.1 mph /  13 km/h 86 % 0.00 in /  0 mm
11:37 69.2 °F /  20.7 °C 64.8 °F /  18.2 °C 29.90 in /  1012.4 hPa NNE 3.9 mph /  6.3 km/h 5.8 mph /  9.3 km/h 86 % 0.00 in /  0 mm
11:42 69.4 °F /  20.8 °C 65.0 °F /  18.3 °C 29.90 in /  1012.4 hPa NNE 3.9 mph /  6.3 km/h 5.8 mph /  9.3 km/h 86 % 0.00 in /  0 mm
11:47 69.7 °F /  20.9 °C 65.0 °F /  18.3 °C 29.89 in /  1012.1 hPa NNE 5.5 mph /  8.9 km/h 9.2 mph /  14.8 km/h 85 % 0.00 in /  0 mm
11:48 69.7 °F /  20.9 °C 65.0 °F /  18.3 °C 29.89 in /  1012.1 hPa North 4.1 mph /  6.6 km/h 9.2 mph /  14.8 km/h 85 % 0.00 in /  0 mm
11:53 70.1 °F /  21.2 °C 65.4 °F /  18.6 °C 29.90 in /  1012.4 hPa North 6.5 mph /  10.5 km/h 9.2 mph /  14.8 km/h 85 % 0.00 in /  0 mm
11:58 70.4 °F /  21.3 °C 65.3 °F /  18.5 °C 29.90 in /  1012.4 hPa NNE 3.8 mph /  6.1 km/h 6.9 mph /  11.1 km/h 84 % 0.00 in /  0 mm
12:03 70.7 °F /  21.5 °C 65.6 °F /  18.7 °C 29.91 in /  1012.8 hPa NNE 4.9 mph /  7.9 km/h 6.9 mph /  11.1 km/h 84 % 0.00 in /  0 mm
12:08 70.9 °F /  21.6 °C 65.5 °F /  18.6 °C 29.91 in /  1012.8 hPa NNW 1.6 mph /  2.6 km/h 4.6 mph /  7.4 km/h 83 % 0.00 in /  0 mm
12:13 71.1 °F /  21.7 °C 65.3 °F /  18.5 °C 29.91 in /  1012.8 hPa NNE 3.4 mph /  5.5 km/h 5.8 mph /  9.3 km/h 82 % 0.00 in /  0 mm
12:18 71.2 °F /  21.8 °C 65.8 °F /  18.8 °C 29.91 in /  1012.8 hPa NNW 1.6 mph /  2.6 km/h 3.5 mph /  5.6 km/h 83 % 0.00 in /  0 mm
12:23 71.3 °F /  21.8 °C 65.5 °F /  18.6 °C 29.91 in /  1012.8 hPa North 4.1 mph /  6.6 km/h 6.9 mph /  11.1 km/h 82 % 0.00 in /  0 mm
12:28 71.5 °F /  21.9 °C 65.4 °F /  18.6 °C 29.92 in /  1013.1 hPa NE 2.6 mph /  4.2 km/h 5.8 mph /  9.3 km/h 81 % 0.00 in /  0 mm
12:33 71.8 °F /  22.1 °C 66.0 °F /  18.9 °C 29.91 in /  1012.8 hPa NE 3.3 mph /  5.3 km/h 6.9 mph /  11.1 km/h 82 % 0.00 in /  0 mm
12:38 72.6 °F /  22.6 °C 67.8 °F /  19.9 °C 29.91 in /  1012.8 hPa North 1.9 mph /  3.1 km/h 4.6 mph /  7.4 km/h 85 % 0.00 in /  0 mm
12:43 73.7 °F /  23.2 °C 67.5 °F /  19.7 °C 29.91 in /  1012.8 hPa NNE 4.2 mph /  6.8 km/h 5.8 mph /  9.3 km/h 81 % 0.00 in /  0 mm
12:48 74.4 °F /  23.6 °C 66.7 °F /  19.3 °C 29.92 in /  1013.1 hPa North 3.2 mph /  5.1 km/h 7.0 mph /  11.3 km/h 77 % 0.00 in /  0 mm
12:49 74.6 °F /  23.7 °C 67.3 °F /  19.6 °C 29.92 in /  1013.1 hPa NNE 4.0 mph /  6.4 km/h 6.9 mph /  11.1 km/h 78 % 0.00 in /  0 mm
12:54 75.4 °F /  24.1 °C 66.9 °F /  19.4 °C 29.91 in /  1012.8 hPa North 4.2 mph /  6.8 km/h 6.9 mph /  11.1 km/h 75 % 0.00 in /  0 mm
12:59 75.6 °F /  24.2 °C 66.3 °F /  19.1 °C 29.92 in /  1013.1 hPa North 5.4 mph /  8.7 km/h 8.1 mph /  13 km/h 73 % 0.00 in /  0 mm
13:04 75.7 °F /  24.3 °C 66.0 °F /  18.9 °C 29.91 in /  1012.8 hPa North 2.5 mph /  4 km/h 4.0 mph /  6.4 km/h 72 % 0.00 in /  0 mm
13:09 75.8 °F /  24.3 °C 66.5 °F /  19.2 °C 29.92 in /  1013.1 hPa NNE 2.6 mph /  4.2 km/h 4.6 mph /  7.4 km/h 73 % 0.00 in /  0 mm
13:14 76.0 °F /  24.4 °C 66.7 °F /  19.3 °C 29.91 in /  1012.8 hPa NNE 3.8 mph /  6.1 km/h 6.0 mph /  9.7 km/h 73 % 0.00 in /  0 mm
13:19 76.3 °F /  24.6 °C 67.0 °F /  19.4 °C 29.92 in /  1013.1 hPa North 1.5 mph /  2.4 km/h 2.3 mph /  3.7 km/h 73 % 0.00 in /  0 mm
13:24 76.9 °F /  24.9 °C 67.6 °F /  19.8 °C 29.91 in /  1012.8 hPa NNE 1.6 mph /  2.6 km/h 5.8 mph /  9.3 km/h 73 % 0.00 in /  0 mm
13:29 77.5 °F /  25.3 °C 66.9 °F /  19.4 °C 29.92 in /  1013.1 hPa NNE 3.2 mph /  5.1 km/h 4.6 mph /  7.4 km/h 70 % 0.00 in /  0 mm
13:34 77.8 °F /  25.4 °C 67.2 °F /  19.6 °C 29.92 in /  1013.1 hPa North 1.4 mph /  2.3 km/h 5.0 mph /  8 km/h 70 % 0.00 in /  0 mm
13:39 77.9 °F /  25.5 °C 66.5 °F /  19.2 °C 29.91 in /  1012.8 hPa NNW 1.3 mph /  2.1 km/h 3.5 mph /  5.6 km/h 68 % 0.00 in /  0 mm
13:44 78.1 °F /  25.6 °C 67.1 °F /  19.5 °C 29.92 in /  1013.1 hPa WNW 2.6 mph /  4.2 km/h 4.6 mph /  7.4 km/h 69 % 0.00 in /  0 mm
13:49 78.2 °F /  25.7 °C 66.3 °F /  19.1 °C 29.92 in /  1013.1 hPa NNW 1.3 mph /  2.1 km/h 3.5 mph /  5.6 km/h 67 % 0.00 in /  0 mm
13:54 78.4 °F /  25.8 °C 67.4 °F /  19.7 °C 29.92 in /  1013.1 hPa NW 0.4 mph /  0.6 km/h 3.5 mph /  5.6 km/h 69 % 0.00 in /  0 mm
13:59 78.5 °F /  25.8 °C 66.6 °F /  19.2 °C 29.92 in /  1013.1 hPa WNW 2.1 mph /  3.4 km/h 5.0 mph /  8 km/h 67 % 0.00 in /  0 mm
14:04 78.7 °F /  25.9 °C 68.1 °F /  20.1 °C 29.92 in /  1013.1 hPa NW 0.3 mph /  0.5 km/h 3.5 mph /  5.6 km/h 70 % 0.00 in /  0 mm
14:09 78.8 °F /  26 °C 67.8 °F /  19.9 °C 29.92 in /  1013.1 hPa West 2.1 mph /  3.4 km/h 3.0 mph /  4.8 km/h 69 % 0.00 in /  0 mm
14:14 78.8 °F /  26 °C 66.9 °F /  19.4 °C 29.92 in /  1013.1 hPa West 1.0 mph /  1.6 km/h 3.0 mph /  4.8 km/h 67 % 0.00 in /  0 mm
14:19 79.0 °F /  26.1 °C 67.5 °F /  19.7 °C 29.92 in /  1013.1 hPa WNW 1.4 mph /  2.3 km/h 2.0 mph /  3.2 km/h 68 % 0.00 in /  0 mm
14:24 79.2 °F /  26.2 °C 68.1 °F /  20.1 °C 29.92 in /  1013.1 hPa NW 1.0 mph /  1.6 km/h 3.5 mph /  5.6 km/h 69 % 0.00 in /  0 mm
14:29 79.4 °F /  26.3 °C 67.5 °F /  19.7 °C 29.92 in /  1013.1 hPa NNE 1.0 mph /  1.6 km/h 1.2 mph /  1.9 km/h 67 % 0.00 in /  0 mm
14:35 79.8 °F /  26.6 °C 67.9 °F /  19.9 °C 29.92 in /  1013.1 hPa North 0.7 mph /  1.1 km/h 3.5 mph /  5.6 km/h 67 % 0.00 in /  0 mm
14:40 79.9 °F /  26.6 °C 67.5 °F /  19.7 °C 29.92 in /  1013.1 hPa WNW 0.4 mph /  0.6 km/h 3.5 mph /  5.6 km/h 66 % 0.00 in /  0 mm
14:45 80.0 °F /  26.7 °C 67.6 °F /  19.8 °C 29.92 in /  1013.1 hPa WNW 1.1 mph /  1.8 km/h 3.5 mph /  5.6 km/h 66 % 0.00 in /  0 mm
14:49 80.1 °F /  26.7 °C 66.4 °F /  19.1 °C 29.91 in /  1012.8 hPa West 1.5 mph /  2.4 km/h 3.5 mph /  5.6 km/h 63 % 0.00 in /  0 mm
14:54 80.3 °F /  26.8 °C 66.1 °F /  18.9 °C 29.92 in /  1013.1 hPa WNW 3.7 mph /  6 km/h 4.0 mph /  6.4 km/h 62 % 0.00 in /  0 mm
14:59 80.5 °F /  26.9 °C 66.3 °F /  19.1 °C 29.92 in /  1013.1 hPa NW 1.6 mph /  2.6 km/h 3.5 mph /  5.6 km/h 62 % 0.00 in /  0 mm
15:04 80.7 °F /  27.1 °C 66.0 °F /  18.9 °C 29.92 in /  1013.1 hPa WNW 1.5 mph /  2.4 km/h 3.5 mph /  5.6 km/h 61 % 0.00 in /  0 mm
15:09 80.7 °F /  27.1 °C 66.5 °F /  19.2 °C 29.92 in /  1013.1 hPa NW 1.3 mph /  2.1 km/h 3.5 mph /  5.6 km/h 62 % 0.00 in /  0 mm
15:14 80.3 °F /  26.8 °C 67.5 °F /  19.7 °C 29.92 in /  1013.1 hPa NW 0.6 mph /  1 km/h 2.3 mph /  3.7 km/h 65 % 0.00 in /  0 mm
15:19 80.3 °F /  26.8 °C 67.0 °F /  19.4 °C 29.92 in /  1013.1 hPa NNE 3.1 mph /  5 km/h 5.8 mph /  9.3 km/h 64 % 0.00 in /  0 mm
15:24 80.3 °F /  26.8 °C 67.5 °F /  19.7 °C 29.92 in /  1013.1 hPa NNW 0.5 mph /  0.8 km/h 2.3 mph /  3.7 km/h 65 % 0.00 in /  0 mm
15:29 80.4 °F /  26.9 °C 66.6 °F /  19.2 °C 29.92 in /  1013.1 hPa NNE 3.6 mph /  5.8 km/h 6.0 mph /  9.7 km/h 63 % 0.00 in /  0 mm
15:34 80.5 °F /  26.9 °C 66.3 °F /  19.1 °C 29.92 in /  1013.1 hPa West 2.6 mph /  4.2 km/h 5.0 mph /  8 km/h 62 % 0.00 in /  0 mm
15:39 80.5 °F /  26.9 °C 66.3 °F /  19.1 °C 29.92 in /  1013.1 hPa NNE 0.8 mph /  1.3 km/h 3.5 mph /  5.6 km/h 62 % 0.00 in /  0 mm
15:44 80.3 °F /  26.8 °C 67.0 °F /  19.4 °C 29.92 in /  1013.1 hPa NNW 0.7 mph /  1.1 km/h 3.5 mph /  5.6 km/h 64 % 0.00 in /  0 mm
15:49 80.2 °F /  26.8 °C 67.8 °F /  19.9 °C 29.92 in /  1013.1 hPa WNW 0.3 mph /  0.5 km/h 2.3 mph /  3.7 km/h 66 % 0.00 in /  0 mm
15:54 80.2 °F /  26.8 °C 67.8 °F /  19.9 °C 29.92 in /  1013.1 hPa NW 3.5 mph /  5.6 km/h 5.8 mph /  9.3 km/h 66 % 0.00 in /  0 mm
15:59 80.3 °F /  26.8 °C 66.1 °F /  18.9 °C 29.92 in /  1013.1 hPa WNW 1.8 mph /  2.9 km/h 5.8 mph /  9.3 km/h 62 % 0.00 in /  0 mm
16:04 80.4 °F /  26.9 °C 67.6 °F /  19.8 °C 29.92 in /  1013.1 hPa NE 1.9 mph /  3.1 km/h 4.6 mph /  7.4 km/h 65 % 0.00 in /  0 mm
16:09 80.4 °F /  26.9 °C 66.6 °F /  19.2 °C 29.92 in /  1013.1 hPa WNW 1.6 mph /  2.6 km/h 3.5 mph /  5.6 km/h 63 % 0.00 in /  0 mm
16:14 80.3 °F /  26.8 °C 67.0 °F /  19.4 °C 29.92 in /  1013.1 hPa NNW 1.9 mph /  3.1 km/h 4.6 mph /  7.4 km/h 64 % 0.00 in /  0 mm
16:19 80.3 °F /  26.8 °C 66.1 °F /  18.9 °C 29.92 in /  1013.1 hPa NW 3.9 mph /  6.3 km/h 9.2 mph /  14.8 km/h 62 % 0.00 in /  0 mm
16:24 80.2 °F /  26.8 °C 66.0 °F /  18.9 °C 29.92 in /  1013.1 hPa NNW 2.5 mph /  4 km/h 6.9 mph /  11.1 km/h 62 % 0.00 in /  0 mm
16:29 80.0 °F /  26.7 °C 66.3 °F /  19.1 °C 29.92 in /  1013.1 hPa WNW 0.2 mph /  0.3 km/h 4.6 mph /  7.4 km/h 63 % 0.00 in /  0 mm
16:34 80.0 °F /  26.7 °C 66.7 °F /  19.3 °C 29.92 in /  1013.1 hPa WNW 1.0 mph /  1.6 km/h 3.5 mph /  5.6 km/h 64 % 0.00 in /  0 mm
16:39 80.0 °F /  26.7 °C 65.8 °F /  18.8 °C 29.92 in /  1013.1 hPa NW 2.9 mph /  4.7 km/h 5.8 mph /  9.3 km/h 62 % 0.00 in /  0 mm
16:44 79.8 °F /  26.6 °C 67.0 °F /  19.4 °C 29.92 in /  1013.1 hPa WNW 1.3 mph /  2.1 km/h 5.0 mph /  8 km/h 65 % 0.00 in /  0 mm
16:49 79.6 °F /  26.4 °C 65.9 °F /  18.8 °C 29.92 in /  1013.1 hPa NW 2.5 mph /  4 km/h 3.0 mph /  4.8 km/h 63 % 0.00 in /  0 mm
16:54 79.4 °F /  26.3 °C 65.7 °F /  18.7 °C 29.92 in /  1013.1 hPa WNW 1.1 mph /  1.8 km/h 4.0 mph /  6.4 km/h 63 % 0.00 in /  0 mm
16:59 79.2 °F /  26.2 °C 65.1 °F /  18.4 °C 29.92 in /  1013.1 hPa WNW 1.1 mph /  1.8 km/h 5.8 mph /  9.3 km/h 62 % 0.00 in /  0 mm
17:04 79.1 °F /  26.2 °C 65.0 °F /  18.3 °C 29.92 in /  1013.1 hPa WNW 2.7 mph /  4.3 km/h 3.5 mph /  5.6 km/h 62 % 0.00 in /  0 mm
17:09 79.1 °F /  26.2 °C 64.0 °F /  17.8 °C 29.92 in /  1013.1 hPa WNW 3.4 mph /  5.5 km/h 6.9 mph /  11.1 km/h 60 % 0.00 in /  0 mm
17:14 79.0 °F /  26.1 °C 65.3 °F /  18.5 °C 29.92 in /  1013.1 hPa NNW 0.9 mph /  1.4 km/h 5.8 mph /  9.3 km/h 63 % 0.00 in /  0 mm
17:19 78.9 °F /  26.1 °C 65.2 °F /  18.4 °C 29.92 in /  1013.1 hPa WNW 1.9 mph /  3.1 km/h 7.0 mph /  11.3 km/h 63 % 0.00 in /  0 mm
17:24 78.8 °F /  26 °C 66.0 °F /  18.9 °C 29.92 in /  1013.1 hPa WNW 0.6 mph /  1 km/h 3.5 mph /  5.6 km/h 65 % 0.00 in /  0 mm
17:29 78.7 °F /  25.9 °C 65.9 °F /  18.8 °C 29.92 in /  1013.1 hPa NW 0.4 mph /  0.6 km/h 3.5 mph /  5.6 km/h 65 % 0.00 in /  0 mm
17:34 78.5 °F /  25.8 °C 65.8 °F /  18.8 °C 29.92 in /  1013.1 hPa NNW 0.9 mph /  1.4 km/h 3.5 mph /  5.6 km/h 65 % 0.00 in /  0 mm
17:40 78.3 °F /  25.7 °C 66.0 °F /  18.9 °C 29.92 in /  1013.1 hPa NW 1.2 mph /  1.9 km/h 3.5 mph /  5.6 km/h 66 % 0.00 in /  0 mm
17:45 78.2 °F /  25.7 °C 65.5 °F /  18.6 °C 29.93 in /  1013.4 hPa WNW 2.8 mph /  4.5 km/h 5.8 mph /  9.3 km/h 65 % 0.00 in /  0 mm
17:50 78.0 °F /  25.6 °C 66.2 °F /  19 °C 29.93 in /  1013.4 hPa NW 0.3 mph /  0.5 km/h 2.3 mph /  3.7 km/h 67 % 0.00 in /  0 mm
17:55 77.9 °F /  25.5 °C 66.1 °F /  18.9 °C 29.93 in /  1013.4 hPa NNW 0.3 mph /  0.5 km/h 3.5 mph /  5.6 km/h 67 % 0.00 in /  0 mm
18:00 77.7 °F /  25.4 °C 66.3 °F /  19.1 °C 29.93 in /  1013.4 hPa WNW 0.3 mph /  0.5 km/h 4.6 mph /  7.4 km/h 68 % 0.00 in /  0 mm
18:05 77.5 °F /  25.3 °C 64.8 °F /  18.2 °C 29.94 in /  1013.8 hPa WNW 1.3 mph /  2.1 km/h 3.5 mph /  5.6 km/h 65 % 0.00 in /  0 mm
18:10 77.5 °F /  25.3 °C 65.7 °F /  18.7 °C 29.93 in /  1013.4 hPa NW 0.1 mph /  0.2 km/h 2.3 mph /  3.7 km/h 67 % 0.00 in /  0 mm
18:15 77.5 °F /  25.3 °C 65.7 °F /  18.7 °C 29.94 in /  1013.8 hPa NNW 0.2 mph /  0.3 km/h 2.3 mph /  3.7 km/h 67 % 0.00 in /  0 mm
18:20 77.4 °F /  25.2 °C 65.6 °F /  18.7 °C 29.94 in /  1013.8 hPa WNW 1.9 mph /  3.1 km/h 6.9 mph /  11.1 km/h 67 % 0.00 in /  0 mm
18:25 77.4 °F /  25.2 °C 65.1 °F /  18.4 °C 29.94 in /  1013.8 hPa WNW 0.8 mph /  1.3 km/h 4.0 mph /  6.4 km/h 66 % 0.00 in /  0 mm
18:30 77.3 °F /  25.2 °C 65.1 °F /  18.4 °C 29.94 in /  1013.8 hPa WNW 2.1 mph /  3.4 km/h 3.5 mph /  5.6 km/h 66 % 0.00 in /  0 mm
18:35 77.3 °F /  25.2 °C 64.6 °F /  18.1 °C 29.94 in /  1013.8 hPa West 0.3 mph /  0.5 km/h 1.2 mph /  1.9 km/h 65 % 0.00 in /  0 mm
18:40 77.1 °F /  25.1 °C 64.9 °F /  18.3 °C 29.94 in /  1013.8 hPa Calm   1.2 mph /  1.9 km/h 66 % 0.00 in /  0 mm
18:45 77.0 °F /  25 °C 63.9 °F /  17.7 °C 29.94 in /  1013.8 hPa WNW 0.8 mph /  1.3 km/h 3.5 mph /  5.6 km/h 64 % 0.00 in /  0 mm
18:50 76.9 °F /  24.9 °C 63.8 °F /  17.7 °C 29.95 in /  1014.1 hPa WNW 0.6 mph /  1 km/h 3.5 mph /  5.6 km/h 64 % 0.00 in /  0 mm
18:55 76.8 °F /  24.9 °C 64.6 °F /  18.1 °C 29.95 in /  1014.1 hPa Calm     66 % 0.00 in /  0 mm
19:00 76.7 °F /  24.8 °C 64.0 °F /  17.8 °C 29.95 in /  1014.1 hPa WNW 2.8 mph /  4.5 km/h 3.5 mph /  5.6 km/h 65 % 0.00 in /  0 mm
19:05 76.6 °F /  24.8 °C 63.5 °F /  17.5 °C 29.95 in /  1014.1 hPa WNW 1.6 mph /  2.6 km/h 3.5 mph /  5.6 km/h 64 % 0.00 in /  0 mm
19:10 76.5 °F /  24.7 °C 63.9 °F /  17.7 °C 29.95 in /  1014.1 hPa WNW 0.4 mph /  0.6 km/h 3.5 mph /  5.6 km/h 65 % 0.00 in /  0 mm
19:15 76.3 °F /  24.6 °C 63.7 °F /  17.6 °C 29.95 in /  1014.1 hPa Calm     65 % 0.00 in /  0 mm
19:20 76.2 °F /  24.6 °C 64.0 °F /  17.8 °C 29.96 in /  1014.4 hPa Calm     66 % 0.00 in /  0 mm
19:25 75.9 °F /  24.4 °C 63.7 °F /  17.6 °C 29.97 in /  1014.8 hPa Calm     66 % 0.00 in /  0 mm
19:30 75.8 °F /  24.3 °C 63.6 °F /  17.6 °C 29.97 in /  1014.8 hPa Calm     66 % 0.00 in /  0 mm
19:35 75.5 °F /  24.2 °C 63.3 °F /  17.4 °C 29.97 in /  1014.8 hPa Calm     66 % 0.00 in /  0 mm
19:41 75.3 °F /  24.1 °C 64.0 °F /  17.8 °C 29.97 in /  1014.8 hPa Calm   1.0 mph /  1.6 km/h 68 % 0.00 in /  0 mm
19:51 74.7 °F /  23.7 °C 63.8 °F /  17.7 °C 29.98 in /  1015.1 hPa Calm     69 % 0.00 in /  0 mm
19:56 74.2 °F /  23.4 °C 64.2 °F /  17.9 °C 29.98 in /  1015.1 hPa Calm     71 % 0.00 in /  0 mm
20:01 73.8 °F /  23.2 °C 64.2 °F /  17.9 °C 29.98 in /  1015.1 hPa Calm     72 % 0.00 in /  0 mm
20:06 73.4 °F /  23 °C 64.2 °F /  17.9 °C 29.98 in /  1015.1 hPa Calm     73 % 0.00 in /  0 mm
20:11 73.0 °F /  22.8 °C 64.6 °F /  18.1 °C 29.98 in /  1015.1 hPa Calm     75 % 0.00 in /  0 mm
20:16 72.6 °F /  22.6 °C 64.6 °F /  18.1 °C 29.99 in /  1015.5 hPa Calm     76 % 0.00 in /  0 mm
20:21 72.3 °F /  22.4 °C 64.3 °F /  17.9 °C 29.98 in /  1015.1 hPa Calm     76 % 0.00 in /  0 mm
20:26 71.9 °F /  22.2 °C 64.3 °F /  17.9 °C 29.99 in /  1015.5 hPa Calm     77 % 0.00 in /  0 mm
20:31 71.4 °F /  21.9 °C 63.8 °F /  17.7 °C 29.99 in /  1015.5 hPa Calm     77 % 0.00 in /  0 mm
20:36 71.0 °F /  21.7 °C 63.8 °F /  17.7 °C 29.99 in /  1015.5 hPa Calm     78 % 0.00 in /  0 mm
20:41 70.7 °F /  21.5 °C 63.5 °F /  17.5 °C 30.00 in /  1015.8 hPa Calm   1.0 mph /  1.6 km/h 78 % 0.00 in /  0 mm
20:46 70.3 °F /  21.3 °C 63.5 °F /  17.5 °C 30.00 in /  1015.8 hPa Calm   1.0 mph /  1.6 km/h 79 % 0.00 in /  0 mm
20:51 70.0 °F /  21.1 °C 63.2 °F /  17.3 °C 29.99 in /  1015.5 hPa Calm     79 % 0.00 in /  0 mm
20:56 69.8 °F /  21 °C 62.9 °F /  17.2 °C 30.00 in /  1015.8 hPa Calm     79 % 0.00 in /  0 mm
21:01 69.4 °F /  20.8 °C 63.0 °F /  17.2 °C 30.00 in /  1015.8 hPa Calm     80 % 0.00 in /  0 mm
21:06 69.1 °F /  20.6 °C 63.0 °F /  17.2 °C 30.00 in /  1015.8 hPa Calm     81 % 0.00 in /  0 mm
21:11 68.8 °F /  20.4 °C 62.7 °F /  17.1 °C 30.00 in /  1015.8 hPa Calm     81 % 0.00 in /  0 mm
21:16 68.6 °F /  20.3 °C 62.5 °F /  16.9 °C 30.00 in /  1015.8 hPa Calm     81 % 0.00 in /  0 mm
21:21 68.4 °F /  20.2 °C 62.7 °F /  17.1 °C 30.00 in /  1015.8 hPa Calm     82 % 0.00 in /  0 mm
21:26 68.1 °F /  20.1 °C 62.4 °F /  16.9 °C 30.01 in /  1016.1 hPa Calm     82 % 0.00 in /  0 mm
21:31 67.9 °F /  19.9 °C 62.2 °F /  16.8 °C 30.01 in /  1016.1 hPa Calm   1.2 mph /  1.9 km/h 82 % 0.00 in /  0 mm
21:36 67.7 °F /  19.8 °C 62.0 °F /  16.7 °C 30.01 in /  1016.1 hPa WNW 0.1 mph /  0.2 km/h 1.2 mph /  1.9 km/h 82 % 0.00 in /  0 mm
21:41 67.5 °F /  19.7 °C 62.2 °F /  16.8 °C 30.01 in /  1016.1 hPa Calm     83 % 0.00 in /  0 mm
21:42 67.5 °F /  19.7 °C 62.2 °F /  16.8 °C 30.01 in /  1016.1 hPa Calm   1.2 mph /  1.9 km/h 83 % 0.00 in /  0 mm
21:48 67.3 °F /  19.6 °C 62.3 °F /  16.8 °C 30.01 in /  1016.1 hPa WNW 0.1 mph /  0.2 km/h 1.2 mph /  1.9 km/h 84 % 0.00 in /  0 mm
21:53 67.1 °F /  19.5 °C 62.1 °F /  16.7 °C 30.01 in /  1016.1 hPa WNW 0.1 mph /  0.2 km/h 1.2 mph /  1.9 km/h 84 % 0.00 in /  0 mm
21:58 67.0 °F /  19.4 °C 62.0 °F /  16.7 °C 30.01 in /  1016.1 hPa Calm   1.2 mph /  1.9 km/h 84 % 0.00 in /  0 mm
22:03 66.8 °F /  19.3 °C 61.8 °F /  16.6 °C 30.01 in /  1016.1 hPa Calm     84 % 0.00 in /  0 mm
22:08 66.7 °F /  19.3 °C 61.7 °F /  16.5 °C 30.02 in /  1016.5 hPa Calm     84 % 0.00 in /  0 mm
22:13 66.6 °F /  19.2 °C 61.6 °F /  16.4 °C 30.02 in /  1016.5 hPa Calm     84 % 0.00 in /  0 mm
22:18 66.5 °F /  19.2 °C 61.5 °F /  16.4 °C 30.02 in /  1016.5 hPa Calm     84 % 0.00 in /  0 mm
22:23 66.4 °F /  19.1 °C 61.4 °F /  16.3 °C 30.02 in /  1016.5 hPa Calm     84 % 0.00 in /  0 mm
22:28 66.3 °F /  19.1 °C 61.3 °F /  16.3 °C 30.02 in /  1016.5 hPa WNW 0.1 mph /  0.2 km/h 1.2 mph /  1.9 km/h 84 % 0.00 in /  0 mm
22:38 66.2 °F /  19 °C 61.2 °F /  16.2 °C 30.02 in /  1016.5 hPa Calm     84 % 0.00 in /  0 mm
22:43 66.1 °F /  18.9 °C 61.5 °F /  16.4 °C 30.02 in /  1016.5 hPa Calm     85 % 0.00 in /  0 mm
22:48 66.1 °F /  18.9 °C 61.5 °F /  16.4 °C 30.02 in /  1016.5 hPa Calm     85 % 0.00 in /  0 mm
22:53 66.0 °F /  18.9 °C 61.4 °F /  16.3 °C 30.03 in /  1016.8 hPa Calm     85 % 0.00 in /  0 mm
22:58 66.0 °F /  18.9 °C 61.7 °F /  16.5 °C 30.03 in /  1016.8 hPa Calm     86 % 0.00 in /  0 mm
23:03 66.0 °F /  18.9 °C 61.7 °F /  16.5 °C 30.03 in /  1016.8 hPa Calm     86 % 0.00 in /  0 mm
23:08 66.0 °F /  18.9 °C 61.7 °F /  16.5 °C 30.03 in /  1016.8 hPa Calm     86 % 0.00 in /  0 mm
23:14 66.0 °F /  18.9 °C 61.7 °F /  16.5 °C 30.03 in /  1016.8 hPa Calm     86 % 0.00 in /  0 mm
23:18 66.0 °F /  18.9 °C 61.7 °F /  16.5 °C 30.03 in /  1016.8 hPa Calm     86 % 0.00 in /  0 mm
23:19 66.0 °F /  18.9 °C 61.7 °F /  16.5 °C 30.03 in /  1016.8 hPa Calm     86 % 0.00 in /  0 mm
23:23 66.0 °F /  18.9 °C 61.7 °F /  16.5 °C 30.03 in /  1016.8 hPa Calm     86 % 0.00 in /  0 mm
23:24 66.0 °F /  18.9 °C 61.7 °F /  16.5 °C 30.03 in /  1016.8 hPa Calm     86 % 0.00 in /  0 mm
23:28 66.0 °F /  18.9 °C 61.7 °F /  16.5 °C 30.03 in /  1016.8 hPa Calm     86 % 0.00 in /  0 mm
23:33 66.0 °F /  18.9 °C 61.7 °F /  16.5 °C 30.03 in /  1016.8 hPa Calm     86 % 0.00 in /  0 mm
23:43 66.0 °F /  18.9 °C 62.0 °F /  16.7 °C 30.04 in /  1017.2 hPa Calm     87 % 0.00 in /  0 mm
23:48 66.0 °F /  18.9 °C 62.0 °F /  16.7 °C 30.04 in /  1017.2 hPa Calm     87 % 0.00 in /  0 mm
23:53 66.0 °F /  18.9 °C 62.0 °F /  16.7 °C 30.04 in /  1017.2 hPa Calm     87 % 0.00 in /  0 mm
23:58 65.9 °F /  18.8 °C 61.9 °F /  16.6 °C 30.04 in /  1017.2 hPa Calm     87 % 0.00 in /  0 mm
Crab Meadow Weather
Compliments of Weather Underground - 3 mb

Script developed by  Jim McMurry - jmcmurry@mwt.net Adapted for the template by  Wim van der Kuil - Leuven-Template.eu

Recycling: Recycling one aluminum can saves enough energy to run a TV for three hours -- or the equivalent of a half a gallon of gasoline.